createdAt,value
2018-09-14T06:18:32.651Z,12.23
2018-09-14T06:21:00.169Z,12.25
2018-09-14T06:23:27.562Z,11.80
2018-09-14T06:25:54.958Z,12.63
2018-09-14T06:28:22.535Z,12.70
2018-09-14T06:30:49.943Z,12.23
2018-09-14T06:33:17.776Z,11.83
2018-09-14T06:35:47.772Z,10.88
2018-09-14T06:38:15.276Z,12.47
2018-09-14T06:40:42.727Z,11.65
2018-09-14T06:43:10.230Z,12.07
2018-09-14T06:45:37.602Z,11.35
2018-09-14T06:48:05.055Z,11.80
2018-09-14T06:50:32.482Z,11.43
2018-09-14T06:52:59.999Z,11.83
2018-09-14T06:55:27.500Z,11.93
2018-09-14T06:57:54.957Z,12.43
2018-09-14T07:00:22.502Z,11.97
2018-09-14T07:02:49.985Z,12.20
2018-09-14T07:05:17.438Z,11.73
2018-09-14T07:07:44.869Z,11.95
2018-09-14T07:10:12.353Z,13.85
2018-09-14T07:12:39.842Z,12.37
2018-09-14T07:15:07.320Z,11.93
2018-09-14T07:17:34.874Z,12.20
2018-09-14T07:20:02.362Z,11.30
2018-09-14T07:22:30.026Z,11.33
2018-09-14T07:24:57.640Z,11.60
2018-09-14T07:27:25.155Z,11.53
2018-09-14T07:29:52.968Z,11.12
2018-09-14T07:32:20.624Z,10.88
2018-09-14T07:34:48.039Z,10.48
2018-09-14T07:37:15.436Z,10.30
2018-09-14T07:39:42.893Z,11.10
2018-09-14T07:42:10.364Z,10.45
2018-09-14T07:44:37.871Z,10.50
2018-09-14T07:47:05.362Z,10.63
2018-09-14T07:49:32.756Z,11.10
2018-09-14T07:52:00.509Z,10.85
2018-09-14T07:54:27.862Z,10.53
2018-09-14T07:56:55.309Z,10.90
2018-09-14T07:59:24.714Z,10.18
2018-09-14T08:01:52.150Z,10.35
2018-09-14T08:04:27.386Z,10.43
2018-09-14T08:06:55.005Z,10.80
2018-09-14T08:09:22.424Z,10.90
2018-09-14T08:11:50.128Z,10.72
2018-09-14T08:14:17.743Z,10.30
2018-09-14T08:16:57.430Z,10.68
2018-09-14T08:19:24.942Z,9.85
2018-09-14T08:21:53.572Z,10.48
2018-09-14T08:24:20.973Z,9.73
2018-09-14T08:26:48.526Z,11.73
2018-09-14T08:29:16.129Z,10.93
2018-09-14T08:31:43.711Z,11.00
2018-09-14T08:34:11.225Z,11.03
2018-09-14T08:36:40.334Z,10.67
2018-09-14T08:39:12.547Z,10.68
2018-09-14T08:41:40.276Z,11.03
2018-09-14T08:44:26.870Z,11.40
2018-09-14T08:46:54.616Z,11.80
2018-09-14T08:49:22.185Z,11.93
2018-09-14T08:51:49.853Z,11.70
2018-09-14T08:54:17.325Z,12.35
2018-09-14T08:56:44.798Z,12.40
2018-09-14T08:59:12.319Z,12.75
2018-09-14T09:01:39.825Z,12.10
2018-09-14T09:04:07.488Z,13.30
2018-09-14T09:06:38.221Z,13.35
2018-09-14T09:09:08.081Z,12.73
2018-09-14T09:11:35.487Z,13.20
2018-09-14T09:14:03.009Z,13.40
2018-09-14T09:16:30.439Z,13.40
2018-09-14T09:18:57.853Z,14.65
2018-09-14T09:21:25.325Z,13.88
2018-09-14T09:23:52.815Z,12.50
2018-09-14T09:26:20.359Z,13.75
2018-09-14T09:28:47.822Z,14.90
2018-09-14T09:31:15.268Z,15.35
2018-09-14T09:33:42.728Z,14.20
2018-09-14T09:36:10.232Z,14.70
2018-09-14T09:38:37.752Z,13.98
2018-09-14T09:41:05.552Z,14.23
2018-09-14T09:43:33.142Z,13.43
2018-09-14T09:46:00.598Z,14.13
2018-09-14T09:48:28.060Z,13.55
2018-09-14T09:50:55.578Z,13.40
2018-09-14T09:53:22.892Z,13.20
2018-09-14T09:55:50.347Z,13.13
2018-09-14T09:58:17.836Z,13.75
2018-09-14T10:00:50.886Z,14.43
2018-09-14T10:03:24.042Z,14.18
2018-09-14T10:05:55.676Z,15.10
2018-09-14T10:08:23.206Z,15.15
2018-09-14T10:10:50.615Z,15.85
2018-09-14T10:13:18.059Z,16.42
2018-09-14T10:15:45.529Z,14.78
2018-09-14T10:18:12.921Z,15.40
2018-09-14T10:20:40.458Z,16.45
2018-09-14T10:23:07.856Z,16.60
2018-09-14T10:25:35.276Z,16.42
2018-09-14T10:28:02.680Z,18.55
2018-09-14T10:30:30.105Z,18.07
2018-09-14T10:32:57.595Z,17.87
2018-09-14T10:35:25.038Z,18.37
2018-09-14T10:37:52.390Z,18.73
2018-09-14T10:40:19.882Z,18.30
2018-09-14T10:42:48.411Z,18.62
2018-09-14T10:45:16.131Z,19.73
2018-09-14T10:47:46.114Z,18.57
2018-09-14T10:50:14.898Z,19.15
2018-09-14T10:52:42.506Z,19.37
2018-09-14T10:55:09.997Z,19.62
2018-09-14T10:57:37.467Z,19.62
2018-09-14T11:00:05.344Z,19.87
2018-09-14T11:02:32.830Z,19.40
2018-09-14T11:05:00.361Z,20.15
2018-09-14T11:07:27.856Z,19.62
2018-09-14T11:09:55.372Z,20.70
2018-09-14T11:12:22.870Z,21.35
2018-09-14T11:14:50.453Z,22.60
2018-09-14T11:17:17.949Z,21.15
2018-09-14T11:19:45.467Z,20.43
2018-09-14T11:22:13.054Z,21.20
2018-09-14T11:24:40.512Z,22.37
2018-09-14T11:27:07.879Z,23.50
2018-09-14T11:29:35.387Z,23.35
2018-09-14T11:32:02.876Z,23.07
2018-09-14T11:34:30.388Z,22.90
2018-09-14T11:36:57.787Z,22.45
2018-09-14T11:39:25.237Z,21.90
2018-09-14T11:41:52.723Z,22.40
2018-09-14T11:44:20.146Z,22.10
2018-09-14T11:46:47.554Z,21.33
2018-09-14T11:49:15.091Z,21.10
2018-09-14T11:51:42.582Z,21.77
2018-09-14T11:54:10.108Z,20.82
2018-09-14T11:56:37.659Z,22.17
2018-09-14T11:59:05.152Z,19.40
2018-09-14T12:01:32.647Z,18.37
2018-09-14T12:04:01.467Z,17.73
2018-09-14T12:06:29.057Z,18.05
2018-09-14T12:08:56.557Z,16.20
2018-09-14T12:11:23.929Z,14.00
2018-09-14T12:13:51.411Z,13.50
2018-09-14T12:16:18.855Z,15.25
2018-09-14T12:18:46.370Z,15.55
2018-09-14T12:21:16.617Z,16.55
2018-09-14T15:36:23.298Z,3.40
2018-09-14T15:39:00.355Z,3.92
2018-09-14T15:41:35.294Z,3.80
